Time;durP1;ratioP1;P1;durP2;ratioP2;P2;SDS_P1;SDS_P2;PMS_P1;PMS_P2;Temp;Humidity;BMP_temperature;BMP_pressure;BME280_temperature;BME280_humidity;BME280_pressure;Samples;Min_cycle;Max_cycle;Signal;HPM_P1;HPM_P2
2023/12/03 00:00:09;;;;;;;;;;;;;;;;;;136959;1272;22546;-83
2023/12/03 00:03:11;;;;;;;;;;;;;;;;;;136830;1272;22532;-83
2023/12/03 00:06:12;;;;;;;;;;;;;;;;;;137438;1272;22509;-85
2023/12/03 00:09:13;;;;;;;;;;;;;;;;;;137144;1272;22488;-83
2023/12/03 00:12:14;;;;;;;;;;;;;;;;;;136919;1272;22515;-83
2023/12/03 00:15:16;;;;;;;;;;;;;;;;;;137189;1272;24912;-84
2023/12/03 00:18:17;;;;;;;;;;;;;;;;;;137336;1272;22670;-85
2023/12/03 00:21:18;;;;;;;;;;;;;;;;;;136907;1272;22505;-83
2023/12/03 00:24:20;;;;;;;;;;;;;;;;;;136994;1272;23886;-84
2023/12/03 00:27:21;;;;;;;;;;;;;;;;;;137580;1272;23020;-84
2023/12/03 00:30:22;;;;;;;;;;;;;;;;;;136842;1272;22504;-84
2023/12/03 00:33:23;;;;;;;;;;;;;;;;;;136945;1272;22530;-84
2023/12/03 00:36:24;;;;;;;;;;;;;;;;;;137603;1272;22560;-84
2023/12/03 00:39:25;;;;;;;;;;;;;;;;;;136948;1272;22506;-83
2023/12/03 00:42:27;;;;;;;;;;;;;;;;;;136929;1272;22528;-85
2023/12/03 00:45:28;;;;;;;;;;;;;;;;;;137356;1272;22522;-86
2023/12/03 00:48:29;;;;;;;;;;;;;;;;;;137180;1269;22492;-84
2023/12/03 00:51:30;;;;;;;;;;;;;;;;;;136890;1272;22508;-85
2023/12/03 00:54:31;;;;;;;;;;;;;;;;;;137296;1272;22519;-85
2023/12/03 00:57:32;;;;;;;;;;;;;;;;;;137312;1272;22988;-85
2023/12/03 01:00:33;;;;;;;;;;;;;;;;;;136908;1272;22510;-85
2023/12/03 01:03:34;;;;;;;;;;;;;;;;;;136930;1272;22533;-86
2023/12/03 01:06:35;;;;;;;;;;;;;;;;;;137585;1272;22510;-84
2023/12/03 01:09:37;;;;;;;;;;;;;;;;;;136859;1272;22588;-84
2023/12/03 01:12:38;;;;;;;;;;;;;;;;;;136947;1272;22589;-84
2023/12/03 01:15:39;;;;;;;;;;;;;;;;;;137575;1272;22519;-83
2023/12/03 01:18:40;;;;;;;;;;;;;;;;;;136904;1272;22491;-85
2023/12/03 01:21:41;;;;;;;;;;;;;;;;;;136850;1268;22543;-85
2023/12/03 01:24:42;;;;;;;;;;;;;;;;;;137349;1272;22653;-86
2023/12/03 01:27:43;;;;;;;;;;;;;;;;;;137080;1272;22557;-85
2023/12/03 01:30:44;;;;;;;;;;;;;;;;;;136938;1272;22979;-85
2023/12/03 01:33:46;;;;;;;;;;;;;;;;;;137251;1262;24177;-86
2023/12/03 01:36:47;;;;;;;;;;;;;;;;;;137295;1272;22544;-85
2023/12/03 01:39:48;;;;;;;;;;;;;;;;;;136867;1272;22547;-85
2023/12/03 01:42:49;;;;;;;;;;;;;;;;;;137010;1272;22522;-85
2023/12/03 01:45:50;;;;;;;;;;;;;;;;;;137500;1269;22516;-85
2023/12/03 01:48:53;;;;;;;;;;;;;;;;;;136959;1272;22958;-85
2023/12/03 01:51:54;;;;;;;;;;;;;;;;;;136968;1272;22597;-85
2023/12/03 01:54:55;;;;;;;;;;;;;;;;;;137456;1272;22502;-85
2023/12/03 01:57:56;;;;;;;;;;;;;;;;;;136893;1272;22496;-85
2023/12/03 02:00:57;;;;;;;;;;;;;;;;;;136908;1272;22538;-85
2023/12/03 02:03:58;;;;;;;;;;;;;;;;;;137387;1272;22612;-87
2023/12/03 02:06:59;;;;;;;;;;;;;;;;;;136951;1272;22545;-83
2023/12/03 02:10:01;;;;;;;;;;;;;;;;;;137122;1272;22542;-85
2023/12/03 02:13:02;;;;;;;;;;;;;;;;;;137188;1272;22508;-85
2023/12/03 02:16:03;;;;;;;;;;;;;;;;;;137263;1272;22580;-84
2023/12/03 02:19:04;;;;;;;;;;;;;;;;;;136948;1272;24241;-86
2023/12/03 02:22:05;;;;;;;;;;;;;;;;;;137190;1272;22754;-85
2023/12/03 02:25:07;;;;;;;;;;;;;;;;;;137397;1272;22488;-86
2023/12/03 02:28:08;;;;;;;;;;;;;;;;;;136943;1272;23019;-86
2023/12/03 02:31:09;;;;;;;;;;;;;;;;;;136970;1272;22515;-86
2023/12/03 02:34:10;;;;;;;;;;;;;;;;;;137546;1272;22924;-83
2023/12/03 02:37:11;;;;;;;;;;;;;;;;;;136877;1272;22533;-85
2023/12/03 02:40:12;;;;;;;;;;;;;;;;;;136944;1272;22535;-86
2023/12/03 02:43:14;;;;;;;;;;;;;;;;;;137604;1272;22539;-86
2023/12/03 02:46:15;;;;;;;;;;;;;;;;;;137016;1272;22609;-86
2023/12/03 02:49:16;;;;;;;;;;;;;;;;;;136804;1272;22532;-87
2023/12/03 02:52:19;;;;;;;;;;;;;;;;;;137447;1272;22878;-85
2023/12/03 02:55:21;;;;;;;;;;;;;;;;;;137012;1272;22562;-85
2023/12/03 02:58:22;;;;;;;;;;;;;;;;;;136823;1272;22533;-84
2023/12/03 03:01:23;;;;;;;;;;;;;;;;;;137334;1272;22605;-87
2023/12/03 03:04:24;;;;;;;;;;;;;;;;;;137062;1272;22507;-85
2023/12/03 03:07:25;;;;;;;;;;;;;;;;;;136841;1269;23063;-85
2023/12/03 03:10:26;;;;;;;;;;;;;;;;;;137193;1272;22542;-86
2023/12/03 03:13:27;;;;;;;;;;;;;;;;;;137046;1272;22538;-83
2023/12/03 03:16:29;;;;;;;;;;;;;;;;;;136839;1272;22533;-84
2023/12/03 03:19:30;;;;;;;;;;;;;;;;;;137059;1269;24229;-88
2023/12/03 03:22:31;;;;;;;;;;;;;;;;;;137148;1272;22610;-83
2023/12/03 03:25:32;;;;;;;;;;;;;;;;;;136833;1272;22537;-85
2023/12/03 03:28:33;;;;;;;;;;;;;;;;;;137159;1272;25916;-87
2023/12/03 03:31:34;;;;;;;;;;;;;;;;;;137446;1272;22516;-85
2023/12/03 03:34:36;;;;;;;;;;;;;;;;;;136876;1272;22594;-84
2023/12/03 03:37:37;;;;;;;;;;;;;;;;;;136853;1269;22532;-85
2023/12/03 03:40:38;;;;;;;;;;;;;;;;;;137491;1272;22576;-84
2023/12/03 03:43:39;;;;;;;;;;;;;;;;;;136843;1269;22564;-86
2023/12/03 03:46:40;;;;;;;;;;;;;;;;;;136716;1272;24231;-84
2023/12/03 03:49:41;;;;;;;;;;;;;;;;;;137492;1272;22546;-83
2023/12/03 03:52:42;;;;;;;;;;;;;;;;;;136756;1272;22647;-85
2023/12/03 03:55:43;;;;;;;;;;;;;;;;;;136862;1269;22595;-84
2023/12/03 03:58:45;;;;;;;;;;;;;;;;;;137446;1272;22572;-83
2023/12/03 04:01:46;;;;;;;;;;;;;;;;;;136829;1269;22580;-84
2023/12/03 04:04:47;;;;;;;;;;;;;;;;;;136874;1272;22528;-84
2023/12/03 04:07:48;;;;;;;;;;;;;;;;;;137547;1272;22532;-85
2023/12/03 04:10:49;;;;;;;;;;;;;;;;;;136950;1272;22550;-84
2023/12/03 04:13:50;;;;;;;;;;;;;;;;;;136825;1272;22509;-84
2023/12/03 04:16:52;;;;;;;;;;;;;;;;;;137451;1272;22524;-84
2023/12/03 04:19:53;;;;;;;;;;;;;;;;;;137116;1272;22533;-84
2023/12/03 04:22:54;;;;;;;;;;;;;;;;;;136947;1272;22511;-83
2023/12/03 04:25:55;;;;;;;;;;;;;;;;;;137418;1272;22524;-83
2023/12/03 04:28:56;;;;;;;;;;;;;;;;;;137345;1272;22643;-82
2023/12/03 04:31:57;;;;;;;;;;;;;;;;;;137015;1272;22548;-83
2023/12/03 04:34:58;;;;;;;;;;;;;;;;;;137028;1272;22765;-82
2023/12/03 04:38:00;;;;;;;;;;;;;;;;;;137442;1272;22936;-82
2023/12/03 04:41:01;;;;;;;;;;;;;;;;;;136870;1272;22542;-82
2023/12/03 04:44:02;;;;;;;;;;;;;;;;;;136724;1272;330056;-83
2023/12/03 04:47:03;;;;;;;;;;;;;;;;;;137527;1272;22507;-84
2023/12/03 04:50:05;;;;;;;;;;;;;;;;;;136880;1272;22554;-83
2023/12/03 04:53:06;;;;;;;;;;;;;;;;;;136981;1272;24855;-83
2023/12/03 04:56:07;;;;;;;;;;;;;;;;;;137533;1272;22547;-83
2023/12/03 04:59:08;;;;;;;;;;;;;;;;;;137019;1272;22508;-82
2023/12/03 05:02:09;;;;;;;;;;;;;;;;;;136766;1272;22536;-83
2023/12/03 05:05:10;;;;;;;;;;;;;;;;;;137430;1272;22519;-84
2023/12/03 05:08:11;;;;;;;;;;;;;;;;;;137144;1272;22607;-83
2023/12/03 05:11:12;;;;;;;;;;;;;;;;;;136919;1270;22519;-81
2023/12/03 05:14:13;;;;;;;;;;;;;;;;;;137178;1272;22534;-82
2023/12/03 05:17:15;;;;;;;;;;;;;;;;;;137344;1272;22438;-82
2023/12/03 05:20:16;;;;;;;;;;;;;;;;;;136882;1272;22577;-82
2023/12/03 05:23:17;;;;;;;;;;;;;;;;;;137063;1272;24233;-83
2023/12/03 05:26:18;;;;;;;;;;;;;;;;;;137506;1272;22509;-83
2023/12/03 05:29:21;;;;;;;;;;;;;;;;;;136956;1272;22517;-83
2023/12/03 05:32:23;;;;;;;;;;;;;;;;;;136904;1272;22708;-83
2023/12/03 05:35:24;;;;;;;;;;;;;;;;;;137685;1272;23114;-82
2023/12/03 05:38:25;;;;;;;;;;;;;;;;;;136896;1272;24208;-83
2023/12/03 05:41:26;;;;;;;;;;;;;;;;;;136905;1272;25251;-82
2023/12/03 05:44:28;;;;;;;;;;;;;;;;;;137433;1272;22528;-82
2023/12/03 05:47:29;;;;;;;;;;;;;;;;;;137032;1272;22506;-83
2023/12/03 05:50:30;;;;;;;;;;;;;;;;;;136986;1272;22507;-82
2023/12/03 05:53:32;;;;;;;;;;;;;;;;;;137197;1272;22539;-82
2023/12/03 05:56:33;;;;;;;;;;;;;;;;;;137331;1272;22552;-83
2023/12/03 05:59:35;;;;;;;;;;;;;;;;;;136873;1272;22597;-83
2023/12/03 06:02:36;;;;;;;;;;;;;;;;;;137105;1272;22537;-82
2023/12/03 06:05:37;;;;;;;;;;;;;;;;;;137626;1272;22488;-81
2023/12/03 06:08:38;;;;;;;;;;;;;;;;;;136950;1272;22507;-82
2023/12/03 06:11:42;;;;;;;;;;;;;;;;;;137001;1272;22586;-82
2023/12/03 06:14:43;;;;;;;;;;;;;;;;;;137579;1272;22532;-83
2023/12/03 06:17:44;;;;;;;;;;;;;;;;;;137117;1272;22533;-83
2023/12/03 06:20:45;;;;;;;;;;;;;;;;;;136945;1272;23004;-83
2023/12/03 06:23:47;;;;;;;;;;;;;;;;;;137348;1272;22516;-83
2023/12/03 06:26:48;;;;;;;;;;;;;;;;;;137279;1272;22519;-83
2023/12/03 06:29:49;;;;;;;;;;;;;;;;;;136892;1272;22589;-84
2023/12/03 06:32:50;;;;;;;;;;;;;;;;;;137076;1272;23245;-85
2023/12/03 06:35:51;;;;;;;;;;;;;;;;;;137418;1272;22489;-84
2023/12/03 06:38:52;;;;;;;;;;;;;;;;;;136906;1272;22870;-82
2023/12/03 06:41:54;;;;;;;;;;;;;;;;;;136908;1272;24874;-83
2023/12/03 06:44:55;;;;;;;;;;;;;;;;;;137539;1272;22494;-84
2023/12/03 06:47:56;;;;;;;;;;;;;;;;;;136915;1272;22526;-82
2023/12/03 06:50:57;;;;;;;;;;;;;;;;;;137190;1272;22538;-82
2023/12/03 06:53:58;;;;;;;;;;;;;;;;;;137270;1272;22542;-81
2023/12/03 06:57:00;;;;;;;;;;;;;;;;;;137003;1272;22530;-80
2023/12/03 07:00:01;;;;;;;;;;;;;;;;;;137037;1272;22539;-80
2023/12/03 07:03:02;;;;;;;;;;;;;;;;;;137277;1272;22534;-84
2023/12/03 07:06:04;;;;;;;;;;;;;;;;;;137087;1272;22503;-82
2023/12/03 07:09:05;;;;;;;;;;;;;;;;;;136902;1272;22572;-81
2023/12/03 07:12:06;;;;;;;;;;;;;;;;;;137279;1272;25304;-85
2023/12/03 07:15:07;;;;;;;;;;;;;;;;;;137394;1272;22513;-81
2023/12/03 07:18:09;;;;;;;;;;;;;;;;;;136908;1272;22554;-83
2023/12/03 07:21:10;;;;;;;;;;;;;;;;;;137000;1272;22530;-83
2023/12/03 07:24:12;;;;;;;;;;;;;;;;;;137653;1261;22525;-83
2023/12/03 07:27:13;;;;;;;;;;;;;;;;;;136965;1272;22545;-83
2023/12/03 07:30:14;;;;;;;;;;;;;;;;;;136927;1272;22698;-80
2023/12/03 07:33:15;;;;;;;;;;;;;;;;;;137612;1267;22611;-84
2023/12/03 07:36:16;;;;;;;;;;;;;;;;;;136938;1272;22477;-81
2023/12/03 07:39:17;;;;;;;;;;;;;;;;;;136863;1272;22496;-82
2023/12/03 07:42:19;;;;;;;;;;;;;;;;;;137465;1272;22514;-82
2023/12/03 07:45:20;;;;;;;;;;;;;;;;;;137247;1272;22562;-82
2023/12/03 07:48:21;;;;;;;;;;;;;;;;;;136919;1272;22514;-82
2023/12/03 07:51:22;;;;;;;;;;;;;;;;;;137157;1272;22538;-82
2023/12/03 07:54:23;;;;;;;;;;;;;;;;;;137468;1272;22506;-81
2023/12/03 07:57:25;;;;;;;;;;;;;;;;;;136870;1272;23009;-81
2023/12/03 08:00:26;;;;;;;;;;;;;;;;;;136985;1272;24866;-80
2023/12/03 08:03:27;;;;;;;;;;;;;;;;;;137527;1272;22610;-81
2023/12/03 08:06:28;;;;;;;;;;;;;;;;;;136875;1272;22550;-81
2023/12/03 08:09:29;;;;;;;;;;;;;;;;;;136883;1272;22529;-81
2023/12/03 08:12:30;;;;;;;;;;;;;;;;;;137622;1272;22297;-83
2023/12/03 08:15:31;;;;;;;;;;;;;;;;;;137046;1272;22524;-82
2023/12/03 08:18:32;;;;;;;;;;;;;;;;;;136984;1272;22506;-82
2023/12/03 08:21:36;;;;;;;;;;;;;;;;;;137370;1272;22499;-82
2023/12/03 08:24:37;;;;;;;;;;;;;;;;;;137328;1272;22507;-80
2023/12/03 08:27:38;;;;;;;;;;;;;;;;;;137019;1268;22628;-82
2023/12/03 08:30:39;;;;;;;;;;;;;;;;;;137150;1272;25375;-81
2023/12/03 08:33:41;;;;;;;;;;;;;;;;;;137537;1272;22614;-82
2023/12/03 08:36:42;;;;;;;;;;;;;;;;;;136960;1272;23055;-83
2023/12/03 08:39:43;;;;;;;;;;;;;;;;;;137041;1272;22912;-84
2023/12/03 08:42:44;;;;;;;;;;;;;;;;;;137651;1272;22495;-82
2023/12/03 08:45:46;;;;;;;;;;;;;;;;;;136987;1272;22506;-81
2023/12/03 08:48:47;;;;;;;;;;;;;;;;;;136950;1272;22554;-83
2023/12/03 08:51:48;;;;;;;;;;;;;;;;;;137410;1272;22528;-83
2023/12/03 08:54:49;;;;;;;;;;;;;;;;;;137117;1272;22502;-82
2023/12/03 08:57:50;;;;;;;;;;;;;;;;;;136998;1268;22544;-83
2023/12/03 09:00:51;;;;;;;;;;;;;;;;;;137338;1272;23220;-83
2023/12/03 09:03:53;;;;;;;;;;;;;;;;;;137396;1272;22519;-82
2023/12/03 09:06:54;;;;;;;;;;;;;;;;;;137049;1272;22851;-80
2023/12/03 09:09:55;;;;;;;;;;;;;;;;;;137098;1272;22515;-82
2023/12/03 09:12:57;;;;;;;;;;;;;;;;;;137579;1272;22602;-82
2023/12/03 09:15:58;;;;;;;;;;;;;;;;;;137006;1272;22515;-82
2023/12/03 09:18:59;;;;;;;;;;;;;;;;;;137055;1272;22523;-84
2023/12/03 09:22:01;;;;;;;;;;;;;;;;;;137494;1272;22634;-80
2023/12/03 09:25:02;;;;;;;;;;;;;;;;;;137007;1272;22516;-81
2023/12/03 09:28:04;;;;;;;;;;;;;;;;;;136970;1272;22501;-83
2023/12/03 09:31:05;;;;;;;;;;;;;;;;;;137390;1272;22523;-83
2023/12/03 09:34:06;;;;;;;;;;;;;;;;;;137164;1272;22861;-84
2023/12/03 09:37:07;;;;;;;;;;;;;;;;;;136939;1272;23039;-83
2023/12/03 09:40:08;;;;;;;;;;;;;;;;;;137222;1272;22514;-85
2023/12/03 09:43:09;;;;;;;;;;;;;;;;;;137464;1272;22568;-84
2023/12/03 09:46:12;;;;;;;;;;;;;;;;;;136998;1272;22490;-84
2023/12/03 09:49:14;;;;;;;;;;;;;;;;;;136878;1272;22558;-84
2023/12/03 09:52:17;;;;;;;;;;;;;;;;;;137587;1272;22491;-83
2023/12/03 09:55:18;;;;;;;;;;;;;;;;;;136901;1272;22549;-83
2023/12/03 09:58:19;;;;;;;;;;;;;;;;;;136923;1272;22604;-84
2023/12/03 10:01:20;;;;;;;;;;;;;;;;;;137471;1272;22544;-84
2023/12/03 10:04:22;;;;;;;;;;;;;;;;;;136917;1272;22538;-84
2023/12/03 10:07:23;;;;;;;;;;;;;;;;;;137003;1272;22551;-85
2023/12/03 10:10:24;;;;;;;;;;;;;;;;;;137419;1272;22519;-84
2023/12/03 10:13:26;;;;;;;;;;;;;;;;;;137280;1272;22515;-84
2023/12/03 10:16:27;;;;;;;;;;;;;;;;;;136916;1272;22548;-85
2023/12/03 10:19:28;;;;;;;;;;;;;;;;;;137165;1272;22514;-84
2023/12/03 10:22:29;;;;;;;;;;;;;;;;;;137437;1272;22556;-85
2023/12/03 10:25:31;;;;;;;;;;;;;;;;;;136964;1272;22580;-83
2023/12/03 10:28:32;;;;;;;;;;;;;;;;;;136933;1272;25024;-82
2023/12/03 10:31:33;;;;;;;;;;;;;;;;;;137557;1265;22992;-83
2023/12/03 10:34:34;;;;;;;;;;;;;;;;;;136983;1272;22551;-85
2023/12/03 10:37:35;;;;;;;;;;;;;;;;;;137022;1265;22559;-85
2023/12/03 10:40:37;;;;;;;;;;;;;;;;;;137545;1272;22510;-85
2023/12/03 10:43:38;;;;;;;;;;;;;;;;;;137011;1272;22514;-84
2023/12/03 10:46:39;;;;;;;;;;;;;;;;;;136813;1265;22521;-83
2023/12/03 10:49:41;;;;;;;;;;;;;;;;;;137392;1272;22536;-84
2023/12/03 10:52:42;;;;;;;;;;;;;;;;;;137111;1272;22544;-82
2023/12/03 10:55:43;;;;;;;;;;;;;;;;;;136836;1272;22538;-83
2023/12/03 10:58:44;;;;;;;;;;;;;;;;;;137397;1272;22524;-83
2023/12/03 11:01:47;;;;;;;;;;;;;;;;;;137331;1272;22518;-82
2023/12/03 11:04:49;;;;;;;;;;;;;;;;;;136963;1272;22555;-83
2023/12/03 11:07:50;;;;;;;;;;;;;;;;;;137098;1272;22525;-84
2023/12/03 11:10:51;;;;;;;;;;;;;;;;;;137580;1272;22490;-85
2023/12/03 11:13:53;;;;;;;;;;;;;;;;;;137032;1272;22524;-84
2023/12/03 11:16:54;;;;;;;;;;;;;;;;;;136969;1272;22539;-84
2023/12/03 11:19:57;;;;;;;;;;;;;;;;;;137479;1272;22431;-84
2023/12/03 11:22:58;;;;;;;;;;;;;;;;;;137035;1265;22546;-85
2023/12/03 11:26:00;;;;;;;;;;;;;;;;;;136928;1272;22798;-84
2023/12/03 11:29:01;;;;;;;;;;;;;;;;;;137300;1272;22500;-84
2023/12/03 11:32:02;;;;;;;;;;;;;;;;;;137180;1272;22560;-85
2023/12/03 11:35:04;;;;;;;;;;;;;;;;;;137153;1272;22547;-83
2023/12/03 11:38:05;;;;;;;;;;;;;;;;;;137304;1272;22512;-83
2023/12/03 11:41:07;;;;;;;;;;;;;;;;;;137485;1272;22569;-83
2023/12/03 11:44:08;;;;;;;;;;;;;;;;;;136986;1272;22525;-82
2023/12/03 11:47:09;;;;;;;;;;;;;;;;;;137063;1272;22527;-82
2023/12/03 11:50:11;;;;;;;;;;;;;;;;;;137641;1272;22500;-82
2023/12/03 11:53:13;;;;;;;;;;;;;;;;;;137167;1272;22622;-83
2023/12/03 11:56:16;;;;;;;;;;;;;;;;;;137177;1272;22583;-82
2023/12/03 11:59:18;;;;;;;;;;;;;;;;;;137554;1272;22545;-83
2023/12/03 12:02:20;;;;;;;;;;;;;;;;;;137044;1272;22533;-84
2023/12/03 12:05:22;;;;;;;;;;;;;;;;;;137036;1272;22520;-84
2023/12/03 12:08:23;;;;;;;;;;;;;;;;;;137350;1272;22522;-83
2023/12/03 12:11:24;;;;;;;;;;;;;;;;;;137327;1272;22509;-83
2023/12/03 12:14:26;;;;;;;;;;;;;;;;;;137409;1272;22495;-83
2023/12/03 12:17:27;;;;;;;;;;;;;;;;;;137131;1272;22507;-84
2023/12/03 12:20:28;;;;;;;;;;;;;;;;;;137520;1272;22577;-83
2023/12/03 12:23:29;;;;;;;;;;;;;;;;;;136995;1272;22949;-81
2023/12/03 12:26:31;;;;;;;;;;;;;;;;;;137039;1272;22549;-80
2023/12/03 12:29:32;;;;;;;;;;;;;;;;;;137622;1270;22449;-81
2023/12/03 12:32:33;;;;;;;;;;;;;;;;;;136987;1272;22512;-80
2023/12/03 12:35:34;;;;;;;;;;;;;;;;;;137487;1272;22479;-80
2023/12/03 12:38:35;;;;;;;;;;;;;;;;;;137658;1272;22306;-80
2023/12/03 12:41:37;;;;;;;;;;;;;;;;;;137274;1272;22926;-80
2023/12/03 12:44:38;;;;;;;;;;;;;;;;;;137183;1272;22601;-81
2023/12/03 12:47:39;;;;;;;;;;;;;;;;;;137552;1272;22530;-82
2023/12/03 12:50:43;;;;;;;;;;;;;;;;;;137256;1272;22522;-82
2023/12/03 12:53:44;;;;;;;;;;;;;;;;;;136879;1272;22490;-81
2023/12/03 12:56:46;;;;;;;;;;;;;;;;;;137042;1272;22549;-84
2023/12/03 12:59:47;;;;;;;;;;;;;;;;;;137432;1272;22536;-82
2023/12/03 13:02:48;;;;;;;;;;;;;;;;;;137040;1272;22519;-83
2023/12/03 13:05:49;;;;;;;;;;;;;;;;;;137042;1272;23031;-82
2023/12/03 13:08:51;;;;;;;;;;;;;;;;;;137581;1272;22508;-82
2023/12/03 13:11:52;;;;;;;;;;;;;;;;;;137466;1265;22947;-82
2023/12/03 13:14:53;;;;;;;;;;;;;;;;;;137060;1272;22544;-82
2023/12/03 13:17:54;;;;;;;;;;;;;;;;;;137682;1268;22765;-82
2023/12/03 13:20:55;;;;;;;;;;;;;;;;;;137081;1272;22504;-82
2023/12/03 13:23:57;;;;;;;;;;;;;;;;;;137279;1272;22547;-82
2023/12/03 13:26:58;;;;;;;;;;;;;;;;;;137476;1272;22520;-84
2023/12/03 13:29:59;;;;;;;;;;;;;;;;;;137182;1272;22549;-85
2023/12/03 13:33:00;;;;;;;;;;;;;;;;;;136936;1272;22557;-86
2023/12/03 13:36:01;;;;;;;;;;;;;;;;;;137113;1272;24322;-86
2023/12/03 13:39:05;;;;;;;;;;;;;;;;;;137485;1272;22540;-86
2023/12/03 13:42:07;;;;;;;;;;;;;;;;;;136985;1272;22505;-85
2023/12/03 13:45:08;;;;;;;;;;;;;;;;;;137009;1272;22519;-84
2023/12/03 13:48:10;;;;;;;;;;;;;;;;;;137574;1272;22518;-84
2023/12/03 13:51:11;;;;;;;;;;;;;;;;;;136945;1272;22589;-84
2023/12/03 13:54:12;;;;;;;;;;;;;;;;;;137005;1272;22535;-82
2023/12/03 13:57:15;;;;;;;;;;;;;;;;;;137337;1272;22552;-83
2023/12/03 14:00:16;;;;;;;;;;;;;;;;;;136980;1268;22569;-83
2023/12/03 14:03:18;;;;;;;;;;;;;;;;;;137011;1272;22527;-83
2023/12/03 14:06:20;;;;;;;;;;;;;;;;;;137438;1272;22524;-85
2023/12/03 14:09:21;;;;;;;;;;;;;;;;;;137100;1272;22539;-83
2023/12/03 14:12:22;;;;;;;;;;;;;;;;;;137077;1272;22518;-84
2023/12/03 14:15:24;;;;;;;;;;;;;;;;;;137223;1272;22513;-83
2023/12/03 14:18:25;;;;;;;;;;;;;;;;;;137415;1272;22971;-83
2023/12/03 14:21:26;;;;;;;;;;;;;;;;;;137020;1272;22479;-84
2023/12/03 14:24:27;;;;;;;;;;;;;;;;;;137194;1272;22547;-84
2023/12/03 14:27:28;;;;;;;;;;;;;;;;;;137536;1272;22505;-83
2023/12/03 14:30:29;;;;;;;;;;;;;;;;;;137086;1272;22532;-83
2023/12/03 14:33:30;;;;;;;;;;;;;;;;;;137034;1272;22530;-83
2023/12/03 14:36:31;;;;;;;;;;;;;;;;;;137664;1272;22831;-83
2023/12/03 14:39:32;;;;;;;;;;;;;;;;;;137113;1272;22552;-83
2023/12/03 14:42:34;;;;;;;;;;;;;;;;;;136806;1272;22632;-85
2023/12/03 14:45:36;;;;;;;;;;;;;;;;;;137478;1272;22514;-85
2023/12/03 14:48:37;;;;;;;;;;;;;;;;;;137086;1272;22554;-85
2023/12/03 14:51:38;;;;;;;;;;;;;;;;;;136972;1272;22997;-83
2023/12/03 14:54:40;;;;;;;;;;;;;;;;;;137218;1259;23203;-83
2023/12/03 14:57:42;;;;;;;;;;;;;;;;;;137247;1268;22498;-83
2023/12/03 15:00:43;;;;;;;;;;;;;;;;;;136895;1272;22563;-82
2023/12/03 15:03:44;;;;;;;;;;;;;;;;;;137088;1272;25314;-82
2023/12/03 15:06:45;;;;;;;;;;;;;;;;;;137508;1272;22543;-82
2023/12/03 15:09:47;;;;;;;;;;;;;;;;;;136915;1272;22499;-82
2023/12/03 15:12:48;;;;;;;;;;;;;;;;;;136996;1272;22548;-82
2023/12/03 15:15:49;;;;;;;;;;;;;;;;;;137531;1272;22522;-82
2023/12/03 15:18:50;;;;;;;;;;;;;;;;;;136865;1272;22535;-83
2023/12/03 15:21:51;;;;;;;;;;;;;;;;;;137020;1272;22482;-82
2023/12/03 15:24:52;;;;;;;;;;;;;;;;;;137492;1272;22536;-82
2023/12/03 15:27:53;;;;;;;;;;;;;;;;;;137118;1272;22504;-83
2023/12/03 15:30:54;;;;;;;;;;;;;;;;;;136963;1272;22492;-83
2023/12/03 15:33:55;;;;;;;;;;;;;;;;;;137165;1272;22510;-83
2023/12/03 15:36:57;;;;;;;;;;;;;;;;;;137300;1268;22514;-83
2023/12/03 15:39:58;;;;;;;;;;;;;;;;;;136901;1272;22515;-81
2023/12/03 15:42:59;;;;;;;;;;;;;;;;;;137035;1268;22466;-80
2023/12/03 15:46:00;;;;;;;;;;;;;;;;;;137468;1272;22546;-81
2023/12/03 15:49:02;;;;;;;;;;;;;;;;;;137159;1272;22531;-81
2023/12/03 15:52:03;;;;;;;;;;;;;;;;;;137234;1272;22540;-81
2023/12/03 15:55:04;;;;;;;;;;;;;;;;;;137680;1272;22318;-82
2023/12/03 15:58:05;;;;;;;;;;;;;;;;;;137070;1272;22511;-81
2023/12/03 16:01:07;;;;;;;;;;;;;;;;;;137090;1272;22523;-82
2023/12/03 16:04:08;;;;;;;;;;;;;;;;;;137448;1272;22525;-83
2023/12/03 16:07:09;;;;;;;;;;;;;;;;;;137011;1272;22492;-81
2023/12/03 16:10:11;;;;;;;;;;;;;;;;;;137042;1272;22882;-81
2023/12/03 16:13:12;;;;;;;;;;;;;;;;;;137371;1272;22531;-81
2023/12/03 16:16:13;;;;;;;;;;;;;;;;;;137246;1272;22490;-81
2023/12/03 16:19:14;;;;;;;;;;;;;;;;;;137349;1272;22576;-81
2023/12/03 16:22:15;;;;;;;;;;;;;;;;;;136989;1272;22510;-80
2023/12/03 16:25:17;;;;;;;;;;;;;;;;;;137161;1272;22506;-80
2023/12/03 16:28:18;;;;;;;;;;;;;;;;;;137241;1272;22501;-83
2023/12/03 16:31:19;;;;;;;;;;;;;;;;;;136984;1272;22566;-83
2023/12/03 16:34:20;;;;;;;;;;;;;;;;;;137619;1272;22498;-83
2023/12/03 16:37:21;;;;;;;;;;;;;;;;;;136937;1272;22508;-83
2023/12/03 16:40:24;;;;;;;;;;;;;;;;;;137021;1272;22508;-82
2023/12/03 16:43:25;;;;;;;;;;;;;;;;;;137470;1272;22526;-82
2023/12/03 16:46:26;;;;;;;;;;;;;;;;;;137100;1272;145183;-81
2023/12/03 16:49:27;;;;;;;;;;;;;;;;;;136917;1272;22511;-81
2023/12/03 16:52:30;;;;;;;;;;;;;;;;;;137063;1272;22517;-83
2023/12/03 16:55:32;;;;;;;;;;;;;;;;;;137189;1272;22951;-81
2023/12/03 16:58:33;;;;;;;;;;;;;;;;;;136831;1268;22583;-80
2023/12/03 17:01:34;;;;;;;;;;;;;;;;;;136965;1272;23279;-83
2023/12/03 17:04:35;;;;;;;;;;;;;;;;;;137521;1272;22506;-83
2023/12/03 17:07:38;;;;;;;;;;;;;;;;;;136904;1272;23120;-83
2023/12/03 17:10:39;;;;;;;;;;;;;;;;;;137013;1272;22545;-82
2023/12/03 17:13:40;;;;;;;;;;;;;;;;;;137637;1272;22344;-81
2023/12/03 17:16:42;;;;;;;;;;;;;;;;;;137634;1272;22413;-80
2023/12/03 17:19:43;;;;;;;;;;;;;;;;;;137108;1267;22546;-81
2023/12/03 17:22:44;;;;;;;;;;;;;;;;;;137634;1272;22281;-82
2023/12/03 17:25:45;;;;;;;;;;;;;;;;;;137675;1272;22714;-82
2023/12/03 17:28:47;;;;;;;;;;;;;;;;;;136991;1272;22549;-82
2023/12/03 17:31:48;;;;;;;;;;;;;;;;;;137408;1272;22554;-84
2023/12/03 17:34:49;;;;;;;;;;;;;;;;;;137068;1272;22525;-82
2023/12/03 17:37:50;;;;;;;;;;;;;;;;;;136858;1272;22531;-82
2023/12/03 17:40:52;;;;;;;;;;;;;;;;;;137272;1272;22529;-82
2023/12/03 17:43:56;;;;;;;;;;;;;;;;;;137334;1272;22901;-82
2023/12/03 17:46:57;;;;;;;;;;;;;;;;;;136908;1272;22986;-80
2023/12/03 17:49:58;;;;;;;;;;;;;;;;;;137026;1272;22529;-82
2023/12/03 17:52:59;;;;;;;;;;;;;;;;;;137592;1272;22502;-83
2023/12/03 17:56:00;;;;;;;;;;;;;;;;;;136890;1272;22544;-82
2023/12/03 17:59:01;;;;;;;;;;;;;;;;;;137254;1272;22599;-83
2023/12/03 18:02:03;;;;;;;;;;;;;;;;;;137667;1272;22688;-83
2023/12/03 18:05:04;;;;;;;;;;;;;;;;;;137166;1272;23116;-83
2023/12/03 18:08:06;;;;;;;;;;;;;;;;;;137247;1272;22505;-82
2023/12/03 18:11:07;;;;;;;;;;;;;;;;;;137647;1272;22403;-81
2023/12/03 18:14:09;;;;;;;;;;;;;;;;;;137661;1272;22365;-82
2023/12/03 18:17:10;;;;;;;;;;;;;;;;;;137355;1272;22642;-82
2023/12/03 18:20:13;;;;;;;;;;;;;;;;;;137124;1272;22653;-82
2023/12/03 18:23:14;;;;;;;;;;;;;;;;;;137513;1272;23414;-81
2023/12/03 18:26:15;;;;;;;;;;;;;;;;;;137086;1272;22514;-78
2023/12/03 18:29:16;;;;;;;;;;;;;;;;;;136966;1272;22522;-81
2023/12/03 18:32:17;;;;;;;;;;;;;;;;;;137472;1272;22484;-81
2023/12/03 18:35:19;;;;;;;;;;;;;;;;;;136866;1272;22507;-81
2023/12/03 18:38:21;;;;;;;;;;;;;;;;;;137006;1272;22997;-81
2023/12/03 18:41:23;;;;;;;;;;;;;;;;;;137565;1272;22482;-82
2023/12/03 18:44:24;;;;;;;;;;;;;;;;;;137275;1272;22532;-80
2023/12/03 18:47:25;;;;;;;;;;;;;;;;;;137226;1272;22717;-80
2023/12/03 18:50:26;;;;;;;;;;;;;;;;;;137376;1272;22525;-83
2023/12/03 18:53:27;;;;;;;;;;;;;;;;;;137132;1272;22580;-79
2023/12/03 18:56:28;;;;;;;;;;;;;;;;;;136971;1272;22841;-80
2023/12/03 18:59:29;;;;;;;;;;;;;;;;;;137087;1272;24951;-82
2023/12/03 19:02:34;;;;;;;;;;;;;;;;;;137284;1272;22647;-80
2023/12/03 19:05:35;;;;;;;;;;;;;;;;;;136830;1265;22512;-80
2023/12/03 19:08:36;;;;;;;;;;;;;;;;;;137055;1272;22544;-80
2023/12/03 19:11:37;;;;;;;;;;;;;;;;;;137598;1272;22487;-80
2023/12/03 19:14:38;;;;;;;;;;;;;;;;;;137133;1268;22592;-80
2023/12/03 19:17:39;;;;;;;;;;;;;;;;;;136953;1272;22510;-80
2023/12/03 19:20:41;;;;;;;;;;;;;;;;;;137558;1272;22485;-80
2023/12/03 19:23:42;;;;;;;;;;;;;;;;;;137053;1272;22512;-80
2023/12/03 19:26:43;;;;;;;;;;;;;;;;;;137352;1272;22492;-80
2023/12/03 19:29:44;;;;;;;;;;;;;;;;;;137616;1272;22743;-80
2023/12/03 19:32:45;;;;;;;;;;;;;;;;;;136961;1272;22539;-80
2023/12/03 19:35:47;;;;;;;;;;;;;;;;;;136902;1272;22505;-80
2023/12/03 19:38:48;;;;;;;;;;;;;;;;;;137553;1272;25383;-79
2023/12/03 19:41:49;;;;;;;;;;;;;;;;;;137244;1272;22506;-79
2023/12/03 19:44:50;;;;;;;;;;;;;;;;;;136947;1272;22948;-81
2023/12/03 19:47:54;;;;;;;;;;;;;;;;;;137037;1272;22472;-82
2023/12/03 19:50:55;;;;;;;;;;;;;;;;;;137572;1272;22525;-80
2023/12/03 19:53:56;;;;;;;;;;;;;;;;;;137009;1272;22579;-81
2023/12/03 19:57:01;;;;;;;;;;;;;;;;;;136976;1272;22552;-82
2023/12/03 20:00:02;;;;;;;;;;;;;;;;;;137530;1272;22608;-82
2023/12/03 20:03:04;;;;;;;;;;;;;;;;;;137039;1272;22505;-80
2023/12/03 20:06:05;;;;;;;;;;;;;;;;;;136897;1272;22503;-81
2023/12/03 20:09:07;;;;;;;;;;;;;;;;;;137262;1272;22514;-83
2023/12/03 20:12:09;;;;;;;;;;;;;;;;;;137263;1272;22516;-82
2023/12/03 20:15:10;;;;;;;;;;;;;;;;;;136934;1272;22480;-81